SWA2208 KMIA-KBNA
Flight info
| Callsign | SWA2208 |
|---|---|
| Flight time | 1h 56m |
| Altitude | 38000 |
| Route | HURCN4 KPASA Q118 THRSR SWFFT3 |
| Aircraft | B38M/M-SDE1FGHILORVWXY/HB1 |
Departure
| Time | 2026-05-03 20:59 |
|---|---|
| Airport | Miami International Airport (KMIA) |
Arrival
| Time | 2026-05-03 22:56 |
|---|---|
| Airport | Nashville International Airport (KBNA) |
| Time | Latitude | Longitude | Altitude | Speed | Heading |
|---|---|---|---|---|---|
| 2026-05-03 20:16 | 25.79728 | -80.28449 | 19 ft | 0 kts | 357° |
| 2026-05-03 20:46 | 25.79718 | -80.28449 | 17 ft | 4 kts | 357° |
| 2026-05-03 20:46 | 25.79694 | -80.28448 | 20 ft | 4 kts | 353° |
| 2026-05-03 20:47 | 25.79674 | -80.28437 | 19 ft | 4 kts | 296° |
| 2026-05-03 20:47 | 25.79670 | -80.28411 | 17 ft | 2 kts | 268° |
| 2026-05-03 20:47 | 25.79670 | -80.28404 | 19 ft | 0 kts | 268° |
| 2026-05-03 20:51 | 25.79670 | -80.28421 | 17 ft | 9 kts | 268° |
| 2026-05-03 20:51 | 25.79652 | -80.28602 | 17 ft | 21 kts | 267° |
| 2026-05-03 20:51 | 25.79643 | -80.28748 | 17 ft | 14 kts | 271° |
| 2026-05-03 20:51 | 25.79705 | -80.28815 | 17 ft | 15 kts | 359° |
| 2026-05-03 20:52 | 25.79781 | -80.28817 | 17 ft | 17 kts | 360° |
| 2026-05-03 20:52 | 25.79893 | -80.28823 | 18 ft | 16 kts | 357° |
| 2026-05-03 20:52 | 25.80004 | -80.28851 | 19 ft | 17 kts | 303° |
| 2026-05-03 20:52 | 25.80007 | -80.28988 | 18 ft | 19 kts | 267° |
| 2026-05-03 20:53 | 25.80002 | -80.29144 | 19 ft | 19 kts | 268° |
| 2026-05-03 20:53 | 25.79997 | -80.29294 | 18 ft | 20 kts | 267° |
| 2026-05-03 20:53 | 25.79991 | -80.29441 | 17 ft | 20 kts | 268° |
| 2026-05-03 20:53 | 25.79983 | -80.29583 | 17 ft | 18 kts | 266° |
| 2026-05-03 20:54 | 25.79978 | -80.29729 | 18 ft | 20 kts | 268° |
| 2026-05-03 20:54 | 25.79973 | -80.29943 | 16 ft | 0 kts | 279° |
| 2026-05-03 20:56 | 25.79983 | -80.29986 | 16 ft | 18 kts | 285° |
| 2026-05-03 20:56 | 25.80034 | -80.30124 | 17 ft | 18 kts | 328° |
| 2026-05-03 20:56 | 25.80075 | -80.30070 | 16 ft | 10 kts | 88° |
| 2026-05-03 20:56 | 25.80075 | -80.30059 | 16 ft | 0 kts | 86° |
| 2026-05-03 20:58 | 25.80075 | -80.30058 | 16 ft | 2 kts | 86° |
| 2026-05-03 20:59 | 25.80085 | -80.29755 | 16 ft | 87 kts | 86° |
| 2026-05-03 20:59 | 25.80129 | -80.28753 | 63 ft | 165 kts | 87° |
| 2026-05-03 20:59 | 25.80220 | -80.27325 | 656 ft | 195 kts | 83° |
| 2026-05-03 20:59 | 25.80334 | -80.25900 | 1767 ft | 180 kts | 87° |
| 2026-05-03 21:00 | 25.80388 | -80.24532 | 2705 ft | 174 kts | 88° |
| 2026-05-03 21:00 | 25.80420 | -80.23650 | 3281 ft | 173 kts | 88° |
| 2026-05-03 21:00 | 25.80485 | -80.21803 | 3977 ft | 190 kts | 88° |
| 2026-05-03 21:00 | 25.80553 | -80.20208 | 4204 ft | 223 kts | 88° |
| 2026-05-03 21:01 | 25.80710 | -80.18407 | 4492 ft | 247 kts | 73° |
| 2026-05-03 21:01 | 25.81639 | -80.16805 | 4475 ft | 254 kts | 37° |
| 2026-05-03 21:01 | 25.83224 | -80.16020 | 4550 ft | 250 kts | 5° |
| 2026-05-03 21:01 | 25.84976 | -80.15912 | 4696 ft | 254 kts | 359° |
| 2026-05-03 21:02 | 25.86750 | -80.15839 | 4737 ft | 255 kts | 359° |
| 2026-05-03 21:02 | 25.88496 | -80.15771 | 4830 ft | 253 kts | 358° |
| 2026-05-03 21:02 | 25.90241 | -80.16050 | 5270 ft | 251 kts | 339° |
| 2026-05-03 21:02 | 25.91920 | -80.16628 | 5792 ft | 254 kts | 339° |
| 2026-05-03 21:03 | 25.93592 | -80.17200 | 6307 ft | 256 kts | 338° |
| 2026-05-03 21:03 | 25.95301 | -80.17789 | 6815 ft | 257 kts | 338° |
| 2026-05-03 21:03 | 25.97011 | -80.18393 | 7347 ft | 258 kts | 334° |
| 2026-05-03 21:03 | 25.98475 | -80.19454 | 7794 ft | 249 kts | 307° |
| 2026-05-03 21:04 | 25.99375 | -80.21091 | 8266 ft | 255 kts | 291° |
| 2026-05-03 21:04 | 26.00124 | -80.22938 | 8764 ft | 266 kts | 291° |
| 2026-05-03 21:04 | 26.00868 | -80.24848 | 9288 ft | 272 kts | 290° |
| 2026-05-03 21:04 | 26.01605 | -80.26798 | 9769 ft | 275 kts | 290° |
| 2026-05-03 21:05 | 26.02338 | -80.28771 | 10224 ft | 277 kts | 289° |
| 2026-05-03 21:05 | 26.03064 | -80.30749 | 10684 ft | 278 kts | 289° |
| 2026-05-03 21:05 | 26.03785 | -80.32730 | 11143 ft | 280 kts | 289° |
| 2026-05-03 21:05 | 26.04512 | -80.34735 | 11611 ft | 281 kts | 289° |
| 2026-05-03 21:06 | 26.05253 | -80.36785 | 12097 ft | 283 kts | 289° |
| 2026-05-03 21:06 | 26.05980 | -80.38800 | 12572 ft | 285 kts | 288° |
| 2026-05-03 21:06 | 26.06720 | -80.40852 | 13066 ft | 287 kts | 288° |
| 2026-05-03 21:06 | 26.07463 | -80.42916 | 13561 ft | 289 kts | 288° |
| 2026-05-03 21:07 | 26.08213 | -80.44997 | 14044 ft | 294 kts | 288° |
| 2026-05-03 21:07 | 26.08994 | -80.47170 | 14483 ft | 311 kts | 288° |
| 2026-05-03 21:07 | 26.09823 | -80.49475 | 14917 ft | 329 kts | 288° |
| 2026-05-03 21:07 | 26.10692 | -80.51891 | 15353 ft | 342 kts | 288° |
| 2026-05-03 21:08 | 26.11585 | -80.54377 | 15827 ft | 349 kts | 288° |
| 2026-05-03 21:08 | 26.12537 | -80.56871 | 16290 ft | 353 kts | 295° |
| 2026-05-03 21:08 | 26.14078 | -80.59035 | 16780 ft | 364 kts | 314° |
| 2026-05-03 21:08 | 26.16261 | -80.60528 | 17299 ft | 377 kts | 332° |
| 2026-05-03 21:09 | 26.18671 | -80.61637 | 17811 ft | 381 kts | 331° |
| 2026-05-03 21:09 | 26.21124 | -80.62815 | 18341 ft | 385 kts | 330° |
| 2026-05-03 21:09 | 26.23593 | -80.63998 | 18802 ft | 388 kts | 330° |
| 2026-05-03 21:09 | 26.26083 | -80.65191 | 19298 ft | 391 kts | 330° |
| 2026-05-03 21:10 | 26.28594 | -80.66394 | 19783 ft | 394 kts | 329° |
| 2026-05-03 21:10 | 26.31119 | -80.67604 | 20272 ft | 397 kts | 329° |
| 2026-05-03 21:10 | 26.33666 | -80.68825 | 20771 ft | 400 kts | 329° |
| 2026-05-03 21:10 | 26.36234 | -80.70058 | 21283 ft | 403 kts | 329° |
| 2026-05-03 21:11 | 26.38806 | -80.71314 | 21788 ft | 404 kts | 326° |
| 2026-05-03 21:11 | 26.41106 | -80.73032 | 22332 ft | 393 kts | 310° |
| 2026-05-03 21:11 | 26.42912 | -80.75280 | 22870 ft | 389 kts | 302° |
| 2026-05-03 21:11 | 26.44664 | -80.77607 | 23382 ft | 395 kts | 307° |
| 2026-05-03 21:12 | 26.46601 | -80.79794 | 23822 ft | 396 kts | 307° |
| 2026-05-03 21:12 | 26.48484 | -80.81987 | 24252 ft | 398 kts | 306° |
| 2026-05-03 21:12 | 26.50394 | -80.84245 | 24694 ft | 401 kts | 307° |
| 2026-05-03 21:12 | 26.52537 | -80.86304 | 25144 ft | 409 kts | 313° |
| 2026-05-03 21:13 | 26.54752 | -80.88303 | 25611 ft | 411 kts | 313° |
| 2026-05-03 21:13 | 26.56968 | -80.90313 | 26079 ft | 412 kts | 313° |
| 2026-05-03 21:13 | 26.59194 | -80.92335 | 26592 ft | 414 kts | 313° |
| 2026-05-03 21:13 | 26.61428 | -80.94366 | 27085 ft | 414 kts | 313° |
| 2026-05-03 21:14 | 26.63670 | -80.96404 | 27587 ft | 415 kts | 312° |
| 2026-05-03 21:14 | 26.65911 | -80.98443 | 28104 ft | 415 kts | 312° |
| 2026-05-03 21:14 | 26.67930 | -81.00282 | 28572 ft | 415 kts | 312° |
| 2026-05-03 21:14 | 26.70174 | -81.02326 | 29097 ft | 416 kts | 312° |
| 2026-05-03 21:15 | 26.72416 | -81.04368 | 29630 ft | 414 kts | 312° |
| 2026-05-03 21:15 | 26.74644 | -81.06400 | 30159 ft | 412 kts | 312° |
| 2026-05-03 21:15 | 26.76856 | -81.08419 | 30616 ft | 411 kts | 311° |
| 2026-05-03 21:15 | 26.79066 | -81.10437 | 31082 ft | 409 kts | 311° |
| 2026-05-03 21:16 | 26.81260 | -81.12441 | 31556 ft | 406 kts | 311° |
| 2026-05-03 21:16 | 26.83445 | -81.14437 | 32042 ft | 404 kts | 310° |
| 2026-05-03 21:16 | 26.85617 | -81.16424 | 32525 ft | 402 kts | 310° |
| 2026-05-03 21:16 | 26.87778 | -81.18399 | 33017 ft | 399 kts | 310° |
| 2026-05-03 21:17 | 26.89922 | -81.20362 | 33572 ft | 397 kts | 309° |
| 2026-05-03 21:17 | 26.91339 | -81.21658 | 33929 ft | 394 kts | 308° |
| 2026-05-03 21:17 | 26.94127 | -81.24212 | 34527 ft | 388 kts | 308° |
| 2026-05-03 21:17 | 26.96202 | -81.26113 | 34967 ft | 384 kts | 308° |
| 2026-05-03 21:18 | 26.98264 | -81.28004 | 35413 ft | 380 kts | 308° |
| 2026-05-03 21:18 | 27.00296 | -81.29868 | 35869 ft | 375 kts | 307° |
| 2026-05-03 21:18 | 27.02301 | -81.31708 | 36328 ft | 370 kts | 307° |
| 2026-05-03 21:18 | 27.04300 | -81.33497 | 36791 ft | 369 kts | 312° |
| 2026-05-03 21:19 | 27.06550 | -81.34961 | 37253 ft | 372 kts | 315° |
| 2026-05-03 21:19 | 27.08760 | -81.36381 | 37744 ft | 362 kts | 315° |
| 2026-05-03 21:19 | 27.10934 | -81.37777 | 38054 ft | 360 kts | 315° |
| 2026-05-03 21:19 | 27.13119 | -81.39171 | 38074 ft | 364 kts | 315° |
| 2026-05-03 21:20 | 27.17464 | -81.41934 | 38041 ft | 374 kts | 316° |
| 2026-05-03 21:20 | 27.22047 | -81.44848 | 38085 ft | 384 kts | 316° |
| 2026-05-03 21:21 | 27.26761 | -81.47847 | 38041 ft | 394 kts | 316° |
| 2026-05-03 21:21 | 27.31560 | -81.50904 | 38043 ft | 397 kts | 316° |
| 2026-05-03 21:22 | 27.36633 | -81.53585 | 38066 ft | 408 kts | 323° |
| 2026-05-03 21:22 | 27.41902 | -81.56005 | 38038 ft | 410 kts | 324° |
| 2026-05-03 21:23 | 27.47152 | -81.58400 | 38048 ft | 410 kts | 324° |
| 2026-05-03 21:23 | 27.52439 | -81.60812 | 38046 ft | 409 kts | 324° |
| 2026-05-03 21:24 | 27.57722 | -81.63224 | 38050 ft | 409 kts | 324° |
| 2026-05-03 21:24 | 27.63000 | -81.65637 | 38067 ft | 409 kts | 324° |
| 2026-05-03 21:25 | 27.68274 | -81.68050 | 38044 ft | 408 kts | 324° |
| 2026-05-03 21:25 | 27.73538 | -81.70461 | 38058 ft | 409 kts | 324° |
| 2026-05-03 21:26 | 27.78796 | -81.72873 | 38049 ft | 408 kts | 324° |
| 2026-05-03 21:26 | 27.84058 | -81.75288 | 38090 ft | 409 kts | 323° |
| 2026-05-03 21:27 | 27.89324 | -81.77708 | 38048 ft | 408 kts | 323° |
| 2026-05-03 21:27 | 27.94614 | -81.80142 | 38043 ft | 414 kts | 323° |
| 2026-05-03 21:28 | 27.99984 | -81.82614 | 38043 ft | 424 kts | 324° |
| 2026-05-03 21:28 | 28.05511 | -81.85162 | 38049 ft | 434 kts | 324° |
| 2026-05-03 21:29 | 28.11156 | -81.87767 | 38046 ft | 442 kts | 324° |
| 2026-05-03 21:29 | 28.16874 | -81.90417 | 38052 ft | 442 kts | 322° |
| 2026-05-03 21:30 | 28.22485 | -81.93232 | 38052 ft | 441 kts | 322° |
| 2026-05-03 21:30 | 28.28105 | -81.96039 | 38051 ft | 441 kts | 322° |
| 2026-05-03 21:31 | 28.33674 | -81.98821 | 38051 ft | 441 kts | 322° |
| 2026-05-03 21:31 | 28.39288 | -82.01628 | 38053 ft | 441 kts | 322° |
| 2026-05-03 21:32 | 28.44896 | -82.04436 | 38087 ft | 441 kts | 322° |
| 2026-05-03 21:32 | 28.50512 | -82.07251 | 38057 ft | 442 kts | 322° |
| 2026-05-03 21:33 | 28.56145 | -82.10078 | 38062 ft | 442 kts | 322° |
| 2026-05-03 21:33 | 28.61776 | -82.12906 | 38053 ft | 442 kts | 322° |
| 2026-05-03 21:34 | 28.67401 | -82.15736 | 38055 ft | 442 kts | 322° |
| 2026-05-03 21:34 | 28.73022 | -82.18566 | 38049 ft | 442 kts | 322° |
| 2026-05-03 21:35 | 28.78648 | -82.21403 | 38045 ft | 444 kts | 322° |
| 2026-05-03 21:35 | 28.84303 | -82.24258 | 38069 ft | 445 kts | 322° |
| 2026-05-03 21:36 | 28.89926 | -82.27100 | 38061 ft | 444 kts | 322° |
| 2026-05-03 21:36 | 28.95577 | -82.29959 | 38063 ft | 444 kts | 322° |
| 2026-05-03 21:37 | 29.01222 | -82.32819 | 38060 ft | 444 kts | 322° |
| 2026-05-03 21:37 | 29.06874 | -82.35686 | 38068 ft | 444 kts | 322° |
| 2026-05-03 21:38 | 29.12525 | -82.38555 | 38061 ft | 445 kts | 322° |
| 2026-05-03 21:38 | 29.18179 | -82.41431 | 38070 ft | 443 kts | 321° |
| 2026-05-03 21:39 | 29.23793 | -82.44288 | 38062 ft | 442 kts | 321° |
| 2026-05-03 21:39 | 29.29379 | -82.47134 | 38065 ft | 442 kts | 321° |
| 2026-05-03 21:40 | 29.35001 | -82.50004 | 38116 ft | 443 kts | 321° |
| 2026-05-03 21:40 | 29.40630 | -82.52879 | 38072 ft | 443 kts | 321° |
| 2026-05-03 21:41 | 29.46265 | -82.55762 | 38069 ft | 443 kts | 321° |
| 2026-05-03 21:41 | 29.51900 | -82.58647 | 38074 ft | 443 kts | 321° |
| 2026-05-03 21:42 | 29.56584 | -82.61049 | 38078 ft | 443 kts | 321° |
| 2026-05-03 21:42 | 29.62211 | -82.63938 | 38073 ft | 443 kts | 321° |
| 2026-05-03 21:43 | 29.67846 | -82.66833 | 38096 ft | 444 kts | 321° |
| 2026-05-03 21:43 | 29.73483 | -82.69734 | 38079 ft | 444 kts | 321° |
| 2026-05-03 21:44 | 29.79121 | -82.72639 | 38089 ft | 444 kts | 321° |
| 2026-05-03 21:44 | 29.84760 | -82.75547 | 38092 ft | 444 kts | 321° |
| 2026-05-03 21:45 | 29.90358 | -82.78439 | 38121 ft | 444 kts | 321° |
| 2026-05-03 21:45 | 29.95981 | -82.81347 | 38086 ft | 442 kts | 321° |
| 2026-05-03 21:46 | 30.01590 | -82.84251 | 38094 ft | 442 kts | 321° |
| 2026-05-03 21:46 | 30.07202 | -82.87160 | 38089 ft | 442 kts | 321° |
| 2026-05-03 21:47 | 30.12812 | -82.90072 | 38095 ft | 442 kts | 321° |
| 2026-05-03 21:47 | 30.18427 | -82.92990 | 38098 ft | 442 kts | 321° |
| 2026-05-03 21:48 | 30.24037 | -82.95909 | 38125 ft | 442 kts | 321° |
| 2026-05-03 21:48 | 30.29641 | -82.98829 | 38111 ft | 442 kts | 321° |
| 2026-05-03 21:49 | 30.35256 | -83.01758 | 38114 ft | 442 kts | 321° |
| 2026-05-03 21:49 | 30.40853 | -83.04682 | 38114 ft | 442 kts | 321° |
| 2026-05-03 21:50 | 30.46468 | -83.07618 | 38123 ft | 442 kts | 321° |
| 2026-05-03 21:50 | 30.52028 | -83.10530 | 38115 ft | 442 kts | 321° |
| 2026-05-03 21:51 | 30.57633 | -83.13468 | 38116 ft | 442 kts | 321° |
| 2026-05-03 21:51 | 30.63230 | -83.16406 | 38137 ft | 442 kts | 321° |
| 2026-05-03 21:52 | 30.68815 | -83.19342 | 38094 ft | 440 kts | 321° |
| 2026-05-03 21:52 | 30.74390 | -83.22277 | 38093 ft | 440 kts | 321° |
| 2026-05-03 21:53 | 30.79975 | -83.25219 | 38132 ft | 440 kts | 322° |
| 2026-05-03 21:53 | 30.85539 | -83.28156 | 38096 ft | 439 kts | 322° |
| 2026-05-03 21:54 | 30.91110 | -83.31099 | 38098 ft | 439 kts | 322° |
| 2026-05-03 21:54 | 30.96673 | -83.34042 | 38084 ft | 439 kts | 322° |
| 2026-05-03 21:55 | 31.02229 | -83.36985 | 38083 ft | 439 kts | 321° |
| 2026-05-03 21:55 | 31.07782 | -83.39931 | 38131 ft | 439 kts | 322° |
| 2026-05-03 21:56 | 31.13341 | -83.42883 | 38086 ft | 438 kts | 322° |
| 2026-05-03 21:56 | 31.18881 | -83.45828 | 38094 ft | 438 kts | 322° |
| 2026-05-03 21:57 | 31.24428 | -83.48782 | 38109 ft | 438 kts | 322° |
| 2026-05-03 21:57 | 31.29933 | -83.51717 | 38106 ft | 438 kts | 322° |
| 2026-05-03 21:58 | 31.35479 | -83.54678 | 38111 ft | 437 kts | 322° |
| 2026-05-03 21:58 | 31.41013 | -83.57635 | 38106 ft | 437 kts | 322° |
| 2026-05-03 21:59 | 31.46540 | -83.60593 | 38105 ft | 437 kts | 322° |
| 2026-05-03 21:59 | 31.52073 | -83.63558 | 38101 ft | 437 kts | 322° |
| 2026-05-03 22:00 | 31.57607 | -83.66528 | 38104 ft | 437 kts | 322° |
| 2026-05-03 22:00 | 31.63132 | -83.69497 | 38101 ft | 437 kts | 322° |
| 2026-05-03 22:01 | 31.68661 | -83.72472 | 38098 ft | 437 kts | 323° |
| 2026-05-03 22:01 | 31.74174 | -83.75441 | 38103 ft | 437 kts | 323° |
| 2026-05-03 22:02 | 31.79698 | -83.78421 | 38107 ft | 437 kts | 323° |
| 2026-05-03 22:02 | 31.85221 | -83.81404 | 38102 ft | 437 kts | 323° |
| 2026-05-03 22:03 | 31.90741 | -83.84390 | 38104 ft | 437 kts | 323° |
| 2026-05-03 22:03 | 31.96248 | -83.87371 | 38108 ft | 436 kts | 323° |
| 2026-05-03 22:04 | 32.01760 | -83.90361 | 38103 ft | 436 kts | 323° |
| 2026-05-03 22:04 | 32.07238 | -83.93336 | 38111 ft | 436 kts | 324° |
| 2026-05-03 22:05 | 32.12746 | -83.96330 | 38081 ft | 436 kts | 323° |
| 2026-05-03 22:05 | 32.18250 | -83.99328 | 38074 ft | 436 kts | 323° |
| 2026-05-03 22:06 | 32.23767 | -84.02336 | 38088 ft | 436 kts | 324° |
| 2026-05-03 22:06 | 32.29272 | -84.05341 | 38079 ft | 436 kts | 324° |
| 2026-05-03 22:07 | 32.34787 | -84.08356 | 38103 ft | 437 kts | 324° |
| 2026-05-03 22:07 | 32.40294 | -84.11371 | 38103 ft | 436 kts | 324° |
| 2026-05-03 22:08 | 32.45805 | -84.14391 | 38095 ft | 436 kts | 324° |
| 2026-05-03 22:08 | 32.51315 | -84.17415 | 38114 ft | 436 kts | 324° |
| 2026-05-03 22:09 | 32.56824 | -84.20444 | 38096 ft | 437 kts | 324° |
| 2026-05-03 22:10 | 32.65053 | -84.24974 | 38101 ft | 437 kts | 325° |
| 2026-05-03 22:10 | 32.70564 | -84.28012 | 38109 ft | 437 kts | 324° |
| 2026-05-03 22:11 | 32.76070 | -84.31053 | 38148 ft | 437 kts | 325° |
| 2026-05-03 22:11 | 32.81585 | -84.34103 | 38100 ft | 436 kts | 326° |
| 2026-05-03 22:12 | 32.87090 | -84.37152 | 38119 ft | 437 kts | 326° |
| 2026-05-03 22:12 | 32.92599 | -84.40207 | 38098 ft | 437 kts | 326° |
| 2026-05-03 22:13 | 32.98112 | -84.43268 | 38089 ft | 437 kts | 326° |
| 2026-05-03 22:13 | 33.03578 | -84.46307 | 38125 ft | 437 kts | 326° |
| 2026-05-03 22:14 | 33.09070 | -84.49365 | 38104 ft | 436 kts | 326° |
| 2026-05-03 22:14 | 33.14560 | -84.52427 | 38096 ft | 436 kts | 326° |
| 2026-05-03 22:15 | 33.20061 | -84.55498 | 38096 ft | 436 kts | 326° |
| 2026-05-03 22:15 | 33.25557 | -84.58572 | 38097 ft | 436 kts | 326° |
| 2026-05-03 22:16 | 33.31049 | -84.61647 | 38095 ft | 436 kts | 326° |
| 2026-05-03 22:16 | 33.36527 | -84.64718 | 38095 ft | 436 kts | 326° |
| 2026-05-03 22:17 | 33.42018 | -84.67802 | 38108 ft | 436 kts | 327° |
| 2026-05-03 22:17 | 33.47512 | -84.70891 | 38099 ft | 436 kts | 327° |
| 2026-05-03 22:18 | 33.53013 | -84.73989 | 38104 ft | 436 kts | 327° |
| 2026-05-03 22:18 | 33.58485 | -84.77073 | 38121 ft | 436 kts | 326° |
| 2026-05-03 22:19 | 33.63930 | -84.80149 | 38115 ft | 434 kts | 327° |
| 2026-05-03 22:19 | 33.69399 | -84.83243 | 38116 ft | 435 kts | 326° |
| 2026-05-03 22:20 | 33.74871 | -84.86340 | 38117 ft | 435 kts | 326° |
| 2026-05-03 22:20 | 33.80341 | -84.89441 | 38091 ft | 435 kts | 326° |
| 2026-05-03 22:21 | 33.85806 | -84.92546 | 38122 ft | 434 kts | 326° |
| 2026-05-03 22:21 | 33.91277 | -84.95658 | 38098 ft | 434 kts | 326° |
| 2026-05-03 22:21 | 33.94083 | -84.97043 | 38071 ft | 444 kts | 337° |
| 2026-05-03 22:22 | 33.97112 | -84.97875 | 38104 ft | 446 kts | 336° |
| 2026-05-03 22:22 | 34.03064 | -84.99910 | 38106 ft | 445 kts | 335° |
| 2026-05-03 22:23 | 34.08987 | -85.02009 | 38102 ft | 444 kts | 335° |
| 2026-05-03 22:23 | 34.14910 | -85.04123 | 38109 ft | 443 kts | 335° |
| 2026-05-03 22:24 | 34.20808 | -85.06231 | 37730 ft | 440 kts | 336° |
| 2026-05-03 22:24 | 34.23734 | -85.07279 | 37160 ft | 439 kts | 336° |
| 2026-05-03 22:24 | 34.26650 | -85.08324 | 36429 ft | 437 kts | 337° |
| 2026-05-03 22:24 | 34.29522 | -85.09354 | 35698 ft | 436 kts | 337° |
| 2026-05-03 22:25 | 34.32432 | -85.10398 | 34979 ft | 436 kts | 338° |
| 2026-05-03 22:25 | 34.35333 | -85.11439 | 34291 ft | 436 kts | 338° |
| 2026-05-03 22:25 | 34.38242 | -85.12486 | 33551 ft | 436 kts | 339° |
| 2026-05-03 22:25 | 34.41147 | -85.13531 | 32777 ft | 436 kts | 339° |
| 2026-05-03 22:26 | 34.44054 | -85.14578 | 32020 ft | 437 kts | 339° |
| 2026-05-03 22:26 | 34.46978 | -85.15629 | 31288 ft | 438 kts | 340° |
| 2026-05-03 22:26 | 34.49904 | -85.16685 | 30574 ft | 440 kts | 340° |
| 2026-05-03 22:26 | 34.52841 | -85.17745 | 29822 ft | 441 kts | 340° |
| 2026-05-03 22:27 | 34.55792 | -85.18810 | 28996 ft | 443 kts | 340° |
| 2026-05-03 22:27 | 34.58758 | -85.19881 | 28188 ft | 445 kts | 340° |
| 2026-05-03 22:27 | 34.61727 | -85.20955 | 27424 ft | 447 kts | 340° |
| 2026-05-03 22:27 | 34.64718 | -85.22037 | 26683 ft | 448 kts | 340° |
| 2026-05-03 22:28 | 34.67700 | -85.23117 | 25961 ft | 449 kts | 340° |
| 2026-05-03 22:28 | 34.70703 | -85.24205 | 25251 ft | 449 kts | 340° |
| 2026-05-03 22:28 | 34.73655 | -85.25274 | 24580 ft | 446 kts | 340° |
| 2026-05-03 22:28 | 34.76618 | -85.26350 | 24231 ft | 444 kts | 340° |
| 2026-05-03 22:29 | 34.79542 | -85.27411 | 24081 ft | 444 kts | 340° |
| 2026-05-03 22:29 | 34.82504 | -85.28488 | 24067 ft | 444 kts | 340° |
| 2026-05-03 22:29 | 34.85470 | -85.29566 | 24090 ft | 445 kts | 340° |
| 2026-05-03 22:29 | 34.88426 | -85.30643 | 24088 ft | 445 kts | 340° |
| 2026-05-03 22:30 | 34.91395 | -85.31725 | 24120 ft | 445 kts | 339° |
| 2026-05-03 22:30 | 34.94354 | -85.32802 | 24107 ft | 444 kts | 339° |
| 2026-05-03 22:30 | 34.97309 | -85.33880 | 24103 ft | 444 kts | 339° |
| 2026-05-03 22:30 | 35.00271 | -85.34960 | 24113 ft | 444 kts | 339° |
| 2026-05-03 22:31 | 35.02234 | -85.35678 | 24106 ft | 444 kts | 339° |
| 2026-05-03 22:31 | 35.05195 | -85.36760 | 24095 ft | 444 kts | 339° |
| 2026-05-03 22:31 | 35.08152 | -85.37842 | 24119 ft | 444 kts | 339° |
| 2026-05-03 22:31 | 35.11103 | -85.38922 | 24093 ft | 444 kts | 339° |
| 2026-05-03 22:32 | 35.14055 | -85.40030 | 24097 ft | 442 kts | 336° |
| 2026-05-03 22:32 | 35.16724 | -85.41799 | 24107 ft | 433 kts | 319° |
| 2026-05-03 22:32 | 35.18836 | -85.44375 | 24124 ft | 430 kts | 310° |
| 2026-05-03 22:32 | 35.20900 | -85.47021 | 24111 ft | 430 kts | 311° |
| 2026-05-03 22:33 | 35.22975 | -85.49657 | 24111 ft | 430 kts | 311° |
| 2026-05-03 22:33 | 35.25044 | -85.52294 | 24100 ft | 430 kts | 311° |
| 2026-05-03 22:33 | 35.27116 | -85.54937 | 24120 ft | 430 kts | 311° |
| 2026-05-03 22:33 | 35.29190 | -85.57585 | 23945 ft | 429 kts | 311° |
| 2026-05-03 22:34 | 35.31251 | -85.60219 | 23758 ft | 428 kts | 311° |
| 2026-05-03 22:34 | 35.33308 | -85.62848 | 23531 ft | 427 kts | 311° |
| 2026-05-03 22:34 | 35.35350 | -85.65463 | 23293 ft | 424 kts | 311° |
| 2026-05-03 22:34 | 35.37364 | -85.68041 | 22575 ft | 412 kts | 311° |
| 2026-05-03 22:35 | 35.39298 | -85.70521 | 21875 ft | 394 kts | 311° |
| 2026-05-03 22:35 | 35.41159 | -85.72908 | 21170 ft | 380 kts | 311° |
| 2026-05-03 22:35 | 35.42955 | -85.75213 | 20494 ft | 367 kts | 311° |
| 2026-05-03 22:35 | 35.44667 | -85.77412 | 19824 ft | 357 kts | 312° |
| 2026-05-03 22:36 | 35.46388 | -85.79624 | 19150 ft | 349 kts | 312° |
| 2026-05-03 22:36 | 35.48024 | -85.81729 | 18514 ft | 342 kts | 312° |
| 2026-05-03 22:36 | 35.49647 | -85.83817 | 17788 ft | 336 kts | 312° |
| 2026-05-03 22:36 | 35.51249 | -85.85881 | 17039 ft | 331 kts | 312° |
| 2026-05-03 22:37 | 35.52829 | -85.87916 | 16340 ft | 328 kts | 313° |
| 2026-05-03 22:37 | 35.54392 | -85.89931 | 15642 ft | 326 kts | 313° |
| 2026-05-03 22:37 | 35.55933 | -85.91963 | 14956 ft | 323 kts | 311° |
| 2026-05-03 22:37 | 35.57448 | -85.93991 | 14289 ft | 321 kts | 312° |
| 2026-05-03 22:38 | 35.58958 | -85.96010 | 13590 ft | 319 kts | 312° |
| 2026-05-03 22:38 | 35.60452 | -85.98006 | 12856 ft | 316 kts | 312° |
| 2026-05-03 22:38 | 35.61935 | -85.99989 | 12281 ft | 312 kts | 312° |
| 2026-05-03 22:38 | 35.63394 | -86.01940 | 12163 ft | 305 kts | 312° |
| 2026-05-03 22:39 | 35.64771 | -86.03782 | 12165 ft | 281 kts | 312° |
| 2026-05-03 22:39 | 35.66061 | -86.05510 | 12021 ft | 278 kts | 312° |
| 2026-05-03 22:39 | 35.67367 | -86.07261 | 11421 ft | 277 kts | 312° |
| 2026-05-03 22:39 | 35.68667 | -86.09003 | 10829 ft | 277 kts | 312° |
| 2026-05-03 22:40 | 35.69963 | -86.10743 | 10305 ft | 274 kts | 313° |
| 2026-05-03 22:40 | 35.71227 | -86.12439 | 10177 ft | 267 kts | 313° |
| 2026-05-03 22:40 | 35.72489 | -86.14128 | 10147 ft | 268 kts | 313° |
| 2026-05-03 22:40 | 35.73753 | -86.15822 | 10125 ft | 269 kts | 313° |
| 2026-05-03 22:41 | 35.75015 | -86.17513 | 10123 ft | 268 kts | 313° |
| 2026-05-03 22:41 | 35.76281 | -86.19211 | 10110 ft | 269 kts | 313° |
| 2026-05-03 22:41 | 35.77550 | -86.20914 | 10117 ft | 270 kts | 313° |
| 2026-05-03 22:41 | 35.78819 | -86.22618 | 10118 ft | 270 kts | 313° |
| 2026-05-03 22:42 | 35.80097 | -86.24308 | 10120 ft | 270 kts | 314° |
| 2026-05-03 22:42 | 35.81386 | -86.25993 | 10112 ft | 270 kts | 313° |
| 2026-05-03 22:42 | 35.82673 | -86.27681 | 10116 ft | 270 kts | 313° |
| 2026-05-03 22:42 | 35.83958 | -86.29368 | 10117 ft | 269 kts | 313° |
| 2026-05-03 22:43 | 35.85217 | -86.31020 | 10112 ft | 269 kts | 314° |
| 2026-05-03 22:43 | 35.86500 | -86.32707 | 10058 ft | 270 kts | 313° |
| 2026-05-03 22:43 | 35.87780 | -86.34389 | 9949 ft | 270 kts | 313° |
| 2026-05-03 22:43 | 35.89068 | -86.36084 | 9501 ft | 273 kts | 313° |
| 2026-05-03 22:44 | 35.90376 | -86.37806 | 9045 ft | 277 kts | 313° |
| 2026-05-03 22:44 | 35.91701 | -86.39550 | 8578 ft | 279 kts | 313° |
| 2026-05-03 22:44 | 35.93036 | -86.41311 | 8119 ft | 282 kts | 313° |
| 2026-05-03 22:44 | 35.94385 | -86.43090 | 7669 ft | 285 kts | 312° |
| 2026-05-03 22:45 | 35.95744 | -86.44882 | 7273 ft | 287 kts | 312° |
| 2026-05-03 22:45 | 35.97110 | -86.46684 | 6811 ft | 289 kts | 312° |
| 2026-05-03 22:45 | 35.98495 | -86.48489 | 6377 ft | 290 kts | 312° |
| 2026-05-03 22:45 | 35.99880 | -86.50287 | 6140 ft | 284 kts | 312° |
| 2026-05-03 22:46 | 36.01199 | -86.52001 | 6130 ft | 270 kts | 312° |
| 2026-05-03 22:46 | 36.02459 | -86.53639 | 6128 ft | 256 kts | 311° |
| 2026-05-03 22:46 | 36.03638 | -86.55176 | 6118 ft | 246 kts | 311° |
| 2026-05-03 22:46 | 36.04830 | -86.56678 | 5915 ft | 247 kts | 319° |
| 2026-05-03 22:47 | 36.06415 | -86.57532 | 5517 ft | 256 kts | 350° |
| 2026-05-03 22:47 | 36.08202 | -86.57259 | 5137 ft | 264 kts | 17° |
| 2026-05-03 22:47 | 36.09949 | -86.56517 | 4743 ft | 266 kts | 16° |
| 2026-05-03 22:47 | 36.11727 | -86.55836 | 4338 ft | 270 kts | 14° |
| 2026-05-03 22:48 | 36.13541 | -86.55163 | 3922 ft | 274 kts | 14° |
| 2026-05-03 22:48 | 36.15380 | -86.54480 | 3501 ft | 277 kts | 14° |
| 2026-05-03 22:48 | 36.17224 | -86.53795 | 3147 ft | 277 kts | 15° |
| 2026-05-03 22:48 | 36.19048 | -86.53117 | 3027 ft | 268 kts | 15° |
| 2026-05-03 22:49 | 36.20784 | -86.52467 | 3039 ft | 254 kts | 15° |
| 2026-05-03 22:49 | 36.22436 | -86.51849 | 3029 ft | 242 kts | 15° |
| 2026-05-03 22:49 | 36.24009 | -86.51265 | 3053 ft | 230 kts | 14° |
| 2026-05-03 22:49 | 36.25501 | -86.50712 | 3031 ft | 216 kts | 15° |
| 2026-05-03 22:50 | 36.26890 | -86.50195 | 2952 ft | 201 kts | 14° |
| 2026-05-03 22:50 | 36.28230 | -86.50069 | 2965 ft | 190 kts | 339° |
| 2026-05-03 22:50 | 36.29279 | -86.50974 | 3029 ft | 184 kts | 305° |
| 2026-05-03 22:50 | 36.29816 | -86.52380 | 3029 ft | 180 kts | 278° |
| 2026-05-03 22:51 | 36.29733 | -86.53871 | 2969 ft | 176 kts | 250° |
| 2026-05-03 22:51 | 36.29182 | -86.55201 | 2962 ft | 171 kts | 239° |
| 2026-05-03 22:51 | 36.28605 | -86.56478 | 2975 ft | 169 kts | 240° |
| 2026-05-03 22:51 | 36.28043 | -86.57754 | 3000 ft | 168 kts | 241° |
| 2026-05-03 22:52 | 36.27493 | -86.59021 | 2987 ft | 166 kts | 241° |
| 2026-05-03 22:52 | 36.26950 | -86.60285 | 2980 ft | 166 kts | 242° |
| 2026-05-03 22:52 | 36.26415 | -86.61535 | 2982 ft | 164 kts | 241° |
| 2026-05-03 22:52 | 36.25789 | -86.62717 | 2946 ft | 165 kts | 220° |
| 2026-05-03 22:53 | 36.24779 | -86.63407 | 2855 ft | 166 kts | 205° |
| 2026-05-03 22:53 | 36.23709 | -86.63910 | 2653 ft | 167 kts | 201° |
| 2026-05-03 22:53 | 36.22632 | -86.64353 | 2435 ft | 160 kts | 200° |
| 2026-05-03 22:53 | 36.21585 | -86.64769 | 2247 ft | 157 kts | 200° |
| 2026-05-03 22:54 | 36.20543 | -86.65181 | 1989 ft | 156 kts | 200° |
| 2026-05-03 22:54 | 36.19510 | -86.65589 | 1769 ft | 157 kts | 200° |
| 2026-05-03 22:54 | 36.18465 | -86.66001 | 1600 ft | 158 kts | 201° |
| 2026-05-03 22:54 | 36.17421 | -86.66416 | 1340 ft | 158 kts | 199° |
| 2026-05-03 22:55 | 36.16368 | -86.66832 | 1130 ft | 160 kts | 199° |
| 2026-05-03 22:55 | 36.15317 | -86.67248 | 978 ft | 157 kts | 201° |
| 2026-05-03 22:55 | 36.14291 | -86.67662 | 736 ft | 151 kts | 201° |
| 2026-05-03 22:55 | 36.13341 | -86.68030 | 585 ft | 137 kts | 200° |
| 2026-05-03 22:56 | 36.12655 | -86.68301 | 577 ft | 57 kts | 198° |
| 2026-05-03 22:56 | 36.12318 | -86.68431 | 574 ft | 38 kts | 198° |
| 2026-05-03 22:56 | 36.12157 | -86.68442 | 574 ft | 18 kts | 121° |
| 2026-05-03 22:56 | 36.12135 | -86.68315 | 582 ft | 12 kts | 61° |
| 2026-05-03 22:57 | 36.12154 | -86.68295 | 579 ft | 0 kts | 25° |
| 2026-05-03 22:57 | 36.12161 | -86.68291 | 582 ft | 6 kts | 25° |
| 2026-05-03 22:57 | 36.12276 | -86.68245 | 575 ft | 29 kts | 15° |
| 2026-05-03 22:58 | 36.12518 | -86.68158 | 577 ft | 42 kts | 16° |
| 2026-05-03 22:58 | 36.12678 | -86.68102 | 577 ft | 0 kts | 15° |
| 2026-05-03 22:58 | 36.12689 | -86.68098 | 577 ft | 5 kts | 15° |
| 2026-05-03 22:58 | 36.12812 | -86.68053 | 579 ft | 27 kts | 18° |
| 2026-05-03 22:59 | 36.12995 | -86.67981 | 578 ft | 31 kts | 18° |
| 2026-05-03 22:59 | 36.13108 | -86.67943 | 578 ft | 1 kts | 14° |
| 2026-05-03 22:59 | 36.13192 | -86.67906 | 575 ft | 26 kts | 18° |
| 2026-05-03 22:59 | 36.13410 | -86.67817 | 578 ft | 34 kts | 18° |
| 2026-05-03 23:00 | 36.13531 | -86.67737 | 580 ft | 0 kts | 92° |
| 2026-05-03 23:00 | 36.13531 | -86.67736 | 580 ft | 0 kts | 92° |
| 2026-05-03 23:01 | 36.13529 | -86.67729 | 587 ft | 4 kts | 104° |
| 2026-05-03 23:02 | 36.13492 | -86.67595 | 572 ft | 27 kts | 107° |
| 2026-05-03 23:02 | 36.13436 | -86.67379 | 573 ft | 12 kts | 107° |
| 2026-05-03 23:02 | 36.13423 | -86.67327 | 571 ft | 0 kts | 107° |
| 2026-05-03 23:02 | 36.13417 | -86.67305 | 572 ft | 10 kts | 108° |
| 2026-05-03 23:03 | 36.13385 | -86.67181 | 579 ft | 8 kts | 108° |
| 2026-05-03 23:03 | 36.13352 | -86.67142 | 576 ft | 6 kts | 180° |
| 2026-05-03 23:03 | 36.13316 | -86.67156 | 577 ft | 2 kts | 203° |
| 2026-05-03 23:03 | 36.13314 | -86.67157 | 575 ft | 0 kts | 202° |
| 2026-05-03 23:04 | 36.13313 | -86.67157 | 575 ft | 0 kts | 202° |